Time;durP1;ratioP1;P1;durP2;ratioP2;P2;SDS_P1;SDS_P2;PMS_P1;PMS_P2;Temp;Humidity;BMP_temperature;BMP_pressure;BME280_temperature;BME280_humidity;BME280_pressure;Samples;Min_cycle;Max_cycle;Signal;HPM_P1;HPM_P2
2022/10/12 00:00:30;;;;;;;20.05;7.45;;;;;;;5.83;100.00;102353.00;5027558;28;20113;-62
2022/10/12 00:02:55;;;;;;;23.52;8.77;;;;;;;5.76;100.00;102361.41;5029422;28;20378;-63
2022/10/12 00:05:20;;;;;;;22.65;8.55;;;;;;;5.62;100.00;102351.97;5053050;28;20055;-64
2022/10/12 00:07:46;;;;;;;23.67;8.63;;;;;;;5.61;100.00;102358.03;5069817;28;20027;-63
2022/10/12 00:10:11;;;;;;;21.88;7.78;;;;;;;5.59;100.00;102364.13;5071488;28;20391;-63
2022/10/12 00:12:36;;;;;;;22.55;7.93;;;;;;;5.61;100.00;102355.41;5070714;28;20025;-63
2022/10/12 00:15:02;;;;;;;20.75;7.90;;;;;;;5.59;100.00;102356.25;5071093;28;20098;-64
2022/10/12 00:17:28;;;;;;;20.90;7.25;;;;;;;5.55;100.00;102350.78;5074373;28;20032;-62
2022/10/12 00:19:53;;;;;;;21.48;7.82;;;;;;;5.44;100.00;102351.97;5075454;28;20107;-62
2022/10/12 00:22:19;;;;;;;21.65;7.75;;;;;;;5.27;100.00;102351.13;5075251;28;20486;-63
2022/10/12 00:24:44;;;;;;;22.00;7.55;;;;;;;5.19;100.00;102351.63;5074294;28;20112;-62
2022/10/12 00:27:09;;;;;;;23.50;8.10;;;;;;;5.15;100.00;102360.16;5072973;28;20099;-62
2022/10/12 00:29:35;;;;;;;20.02;7.63;;;;;;;5.13;100.00;102356.56;5075082;28;20016;-61
2022/10/12 00:32:00;;;;;;;19.45;7.60;;;;;;;4.99;100.00;102354.97;5074927;28;20086;-62
2022/10/12 00:34:25;;;;;;;20.80;7.80;;;;;;;4.92;100.00;102350.22;5074802;28;20514;-62
2022/10/12 00:36:51;;;;;;;20.83;7.90;;;;;;;4.86;100.00;102351.72;5073673;28;20035;-64
2022/10/12 00:39:16;;;;;;;20.50;7.95;;;;;;;4.76;100.00;102343.28;5074911;28;20017;-64
2022/10/12 00:41:42;;;;;;;21.00;8.00;;;;;;;4.82;100.00;102356.72;5074958;28;20027;-65
2022/10/12 00:44:53;;;;;;;22.33;7.70;;;;;;;4.95;100.00;102355.63;5074645;28;20027;-64
2022/10/12 00:47:32;;;;;;;21.15;7.78;;;;;;;4.91;100.00;102348.41;5068891;28;20045;-64
2022/10/12 00:50:31;;;;;;;21.90;8.18;;;;;;;4.99;100.00;102350.59;5070866;28;20175;-64
2022/10/12 00:53:07;;;;;;;21.20;8.00;;;;;;;4.99;100.00;102352.34;5069520;28;20032;-65
2022/10/12 00:55:38;;;;;;;21.10;7.82;;;;;;;5.13;100.00;102356.56;5073307;28;20032;-64
2022/10/12 00:58:07;;;;;;;22.70;8.05;;;;;;;5.28;100.00;102355.56;5074007;28;20036;-62
2022/10/12 01:00:33;;;;;;;20.30;7.53;;;;;;;5.32;100.00;102357.50;5074148;28;20044;-62
2022/10/12 01:02:59;;;;;;;21.83;8.00;;;;;;;5.28;100.00;102355.56;5073848;28;20036;-62
2022/10/12 01:05:25;;;;;;;23.40;7.85;;;;;;;5.41;100.00;102357.94;5074764;28;20032;-61
2022/10/12 01:07:50;;;;;;;20.92;7.88;;;;;;;5.43;100.00;102358.03;5073605;28;20024;-62
2022/10/12 01:10:16;;;;;;;21.02;7.68;;;;;;;5.50;100.00;102361.03;5074134;28;20464;-61
2022/10/12 01:12:43;;;;;;;20.80;7.63;;;;;;;5.50;100.00;102352.25;5074380;28;20033;-62
2022/10/12 01:15:10;;;;;;;21.98;8.07;;;;;;;5.42;100.00;102349.28;5073364;28;20051;-61
2022/10/12 01:17:52;;;;;;;21.55;8.02;;;;;;;5.35;100.00;102342.81;5073613;28;20051;-62
2022/10/12 01:20:29;;;;;;;23.60;8.48;;;;;;;5.33;100.00;102335.69;5071808;28;20024;-62
2022/10/12 01:23:14;;;;;;;22.42;8.27;;;;;;;5.24;100.00;102344.91;5074146;28;20115;-62
2022/10/12 01:26:10;;;;;;;22.05;7.80;;;;;;;5.20;100.00;102335.09;5072883;28;20028;-65
2022/10/12 01:28:57;;;;;;;22.70;8.55;;;;;;;5.14;100.00;102319.06;5071116;28;20044;-64
2022/10/12 01:31:40;;;;;;;20.85;7.68;;;;;;;5.22;100.00;102325.56;5073714;28;20031;-65
2022/10/12 01:34:08;;;;;;;;;;;;;;;5.32;100.00;102320.78;5072536;28;20029;-65
2022/10/12 01:36:41;;;;;;;21.38;8.25;;;;;;;5.20;100.00;102321.09;5074030;28;19913;-65
2022/10/12 01:39:15;;;;;;;22.35;7.80;;;;;;;5.10;100.00;102322.34;5072775;28;20067;-65
2022/10/12 01:41:54;;;;;;;20.55;7.72;;;;;;;4.96;100.00;102320.75;5073486;28;20032;-65
2022/10/12 01:44:24;;;;;;;21.27;7.97;;;;;;;4.84;100.00;102316.66;5072931;28;20044;-65
2022/10/12 01:46:54;;;;;;;22.13;8.05;;;;;;;4.89;100.00;102322.13;5072981;28;20056;-65
2022/10/12 01:49:24;;;;;;;21.20;7.97;;;;;;;4.96;100.00;102316.38;5072513;28;21335;-65
2022/10/12 01:52:28;;;;;;;21.48;8.30;;;;;;;5.05;100.00;102309.00;5073159;28;20163;-65
2022/10/12 01:55:16;;;;;;;21.20;7.85;;;;;;;5.04;100.00;102311.56;5072947;28;20033;-65
2022/10/12 01:58:02;;;;;;;23.23;8.50;;;;;;;4.99;100.00;102307.78;5070602;28;20101;-65
2022/10/12 02:00:31;;;;;;;20.42;7.93;;;;;;;4.91;100.00;102306.50;5073032;28;20042;-65
2022/10/12 02:03:19;;;;;;;24.05;8.23;;;;;;;4.82;100.00;102313.09;5073053;28;20020;-61
2022/10/12 02:05:59;;;;;;;21.05;8.15;;;;;;;4.81;100.00;102306.03;5070736;28;20029;-62
2022/10/12 02:08:31;;;;;;;20.17;8.00;;;;;;;4.78;100.00;102305.88;5072849;28;20036;-61
2022/10/12 02:11:03;;;;;;;20.00;7.80;;;;;;;4.81;100.00;102306.03;5071606;28;20933;-61
2022/10/12 02:13:35;;;;;;;21.40;8.10;;;;;;;4.93;100.00;102295.25;5072017;28;20044;-61
2022/10/12 02:16:05;;;;;;;24.15;8.25;;;;;;;4.95;100.00;102300.59;5072803;28;20395;-62
2022/10/12 02:18:33;;;;;;;23.02;7.97;;;;;;;4.94;100.00;102297.06;5072684;28;20027;-61
2022/10/12 02:20:59;;;;;;;21.55;8.50;;;;;;;4.89;100.00;102291.59;5072637;28;20491;-61
2022/10/12 02:23:27;;;;;;;21.42;8.63;;;;;;;4.82;100.00;102289.50;5072942;28;20028;-61
2022/10/12 02:25:52;;;;;;;21.70;8.93;;;;;;;4.74;100.00;102285.56;5072740;28;20028;-61
2022/10/12 02:28:20;;;;;;;23.10;8.95;;;;;;;4.69;100.00;102289.69;5071987;28;20039;-61
2022/10/12 02:30:52;;;;;;;21.13;8.75;;;;;;;4.64;100.00;102285.94;5069069;28;20032;-62
2022/10/12 02:33:37;;;;;;;22.13;8.88;;;;;;;4.61;100.00;102288.38;5069066;28;20029;-62
2022/10/12 02:36:10;;;;;;;21.75;8.38;;;;;;;4.58;100.00;102290.84;5070619;28;20029;-62
2022/10/12 02:38:45;;;;;;;21.90;8.00;;;;;;;4.65;100.00;102287.72;5071666;28;20103;-61
2022/10/12 02:41:15;;;;;;;21.30;8.40;;;;;;;4.56;100.00;102293.41;5071669;28;20613;-61
2022/10/12 02:43:46;;;;;;;22.13;8.50;;;;;;;4.39;100.00;102292.50;5072593;28;20421;-64
2022/10/12 02:46:12;;;;;;;22.25;8.68;;;;;;;4.28;100.00;102291.94;5072236;28;20490;-65
2022/10/12 02:48:40;;;;;;;22.45;8.60;;;;;;;4.32;100.00;102287.75;5071358;28;20529;-65
2022/10/12 02:51:08;;;;;;;21.42;8.90;;;;;;;4.34;100.00;102280.91;5072016;28;20103;-64
2022/10/12 02:53:34;;;;;;;21.50;8.57;;;;;;;4.30;100.00;102277.22;5072230;28;20467;-65
2022/10/12 02:56:10;;;;;;;22.20;8.30;;;;;;;4.24;100.00;102281.19;5072126;28;20097;-64
2022/10/12 02:58:35;;;;;;;22.38;8.10;;;;;;;4.24;100.00;102275.97;5071837;28;20036;-64
2022/10/12 03:01:01;;;;;;;23.58;8.52;;;;;;;4.25;100.00;102275.16;5071582;28;20028;-65
2022/10/12 03:03:27;;;;;;;20.40;8.00;;;;;;;4.22;100.00;102275.00;5071664;28;20118;-65
2022/10/12 03:05:52;;;;;;;20.27;8.05;;;;;;;4.15;100.00;102269.44;5072015;28;20031;-64
2022/10/12 03:08:18;;;;;;;20.63;8.40;;;;;;;4.12;100.00;102264.06;5071566;28;20387;-62
2022/10/12 03:10:43;;;;;;;21.27;8.75;;;;;;;4.07;100.00;102265.50;5072130;28;20036;-62
2022/10/12 03:13:08;;;;;;;21.90;8.50;;;;;;;4.05;100.00;102263.63;5072016;28;20478;-62
2022/10/12 03:15:34;;;;;;;23.10;8.85;;;;;;;3.99;100.00;102261.56;5068595;28;20045;-62
2022/10/12 03:17:59;;;;;;;20.95;8.20;;;;;;;3.95;100.00;102265.75;5070152;28;20122;-62
2022/10/12 03:20:24;;;;;;;20.33;8.25;;;;;;;3.93;100.00;102267.41;5071700;28;20383;-62
2022/10/12 03:22:50;;;;;;;20.70;8.45;;;;;;;3.93;100.00;102270.03;5072056;28;20111;-62
2022/10/12 03:25:15;;;;;;;23.02;8.45;;;;;;;3.91;100.00;102262.91;5071864;28;20468;-63
2022/10/12 03:27:41;;;;;;;22.98;8.68;;;;;;;3.90;100.00;102267.22;5070508;28;20510;-63
2022/10/12 03:30:07;;;;;;;21.42;8.55;;;;;;;3.81;100.00;102261.50;5072065;28;20060;-62
2022/10/12 03:32:32;;;;;;;21.90;8.70;;;;;;;3.81;100.00;102261.50;5071619;28;20464;-62
2022/10/12 03:34:57;;;;;;;21.13;8.65;;;;;;;3.80;100.00;102265.84;5071926;28;20035;-62
2022/10/12 03:37:23;;;;;;;21.33;8.48;;;;;;;3.76;100.00;102262.97;5071059;28;20537;-62
2022/10/12 03:39:48;;;;;;;20.38;8.57;;;;;;;3.70;100.00;102253.06;5070948;28;20115;-61
2022/10/12 03:42:14;;;;;;;20.63;8.30;;;;;;;3.70;100.00;102260.00;5071859;28;20058;-61
2022/10/12 03:44:40;;;;;;;20.38;8.60;;;;;;;3.70;100.00;102262.59;5071975;28;20024;-62
2022/10/12 03:47:05;;;;;;;21.05;8.10;;;;;;;3.70;100.00;102258.28;5071244;28;20028;-61
2022/10/12 03:49:30;;;;;;;22.35;8.63;;;;;;;3.67;100.00;102259.03;5071707;28;20028;-63
2022/10/12 03:51:56;;;;;;;20.23;8.48;;;;;;;3.69;100.00;102263.44;5073703;28;20097;-61
2022/10/12 03:54:21;;;;;;;20.52;8.73;;;;;;;3.70;100.00;102267.84;5075423;28;20029;-62
2022/10/12 03:56:47;;;;;;;22.25;9.68;;;;;;;3.70;100.00;102258.28;5075866;28;20029;-62
2022/10/12 03:59:12;;;;;;;22.23;9.88;;;;;;;3.71;100.00;102254.84;5075347;28;20051;-62
2022/10/12 04:01:37;;;;;;;24.05;10.55;;;;;;;3.63;100.00;102256.16;5075204;28;20024;-63
2022/10/12 04:04:02;;;;;;;22.90;10.68;;;;;;;3.60;100.00;102248.16;5075088;28;20028;-63
2022/10/12 04:06:28;;;;;;;21.98;9.90;;;;;;;3.60;100.00;102242.91;5075664;28;20052;-62
2022/10/12 04:08:53;;;;;;;22.90;10.10;;;;;;;3.54;100.00;102255.63;5074800;28;20047;-62
2022/10/12 04:11:19;;;;;;;23.40;10.13;;;;;;;3.57;100.00;102250.56;5075387;28;20068;-64
2022/10/12 04:13:44;;;;;;;22.27;9.75;;;;;;;3.60;100.00;102249.03;5074895;28;20109;-64
2022/10/12 04:16:10;;;;;;;23.27;9.80;;;;;;;3.62;100.00;102249.13;5074366;28;20047;-63
2022/10/12 04:18:35;;;;;;;23.27;10.30;;;;;;;3.59;100.00;102246.34;5075027;28;20431;-64
2022/10/12 04:21:01;;;;;;;24.35;10.52;;;;;;;3.64;100.00;102253.63;5075206;28;20062;-65
2022/10/12 04:23:27;;;;;;;23.67;11.02;;;;;;;3.70;100.00;102252.16;5075226;28;20024;-65
2022/10/12 04:25:52;;;;;;;24.17;11.00;;;;;;;3.68;100.00;102252.06;5074640;28;20093;-64
2022/10/12 04:28:18;;;;;;;23.08;10.88;;;;;;;3.59;100.00;102252.47;5073438;28;20071;-63
2022/10/12 04:30:44;;;;;;;23.58;10.60;;;;;;;3.48;100.00;102251.88;5073772;28;20123;-64
2022/10/12 04:33:09;;;;;;;23.20;10.80;;;;;;;3.46;100.00;102252.59;5075116;28;20025;-64
2022/10/12 04:35:35;;;;;;;22.55;10.40;;;;;;;3.43;100.00;102248.09;5074963;28;20024;-64
2022/10/12 04:38:00;;;;;;;22.27;10.10;;;;;;;3.44;100.00;102249.91;5073810;28;20060;-64
2022/10/12 04:40:25;;;;;;;22.20;10.35;;;;;;;3.49;100.00;102250.16;5074468;28;20031;-64
2022/10/12 04:42:51;;;;;;;22.77;10.10;;;;;;;3.51;100.00;102252.84;5074943;28;20345;-64
2022/10/12 04:45:16;;;;;;;22.60;10.02;;;;;;;3.44;100.00;102255.13;5074957;28;20468;-64
2022/10/12 04:47:41;;;;;;;22.73;10.25;;;;;;;3.35;100.00;102252.00;5074042;28;20029;-64
2022/10/12 04:50:07;;;;;;;23.50;10.52;;;;;;;3.35;100.00;102252.00;5074329;28;20025;-64
2022/10/12 04:52:33;;;;;;;22.63;10.60;;;;;;;3.31;100.00;102263.09;5074256;28;20178;-64
2022/10/12 04:54:58;;;;;;;23.27;11.10;;;;;;;3.30;100.00;102259.56;5074466;28;20079;-64
2022/10/12 04:57:23;;;;;;;22.42;10.43;;;;;;;3.35;100.00;102264.16;5073264;28;20032;-61
2022/10/12 04:59:48;;;;;;;24.88;11.15;;;;;;;3.40;100.00;102255.75;5074646;28;20988;-63
2022/10/12 05:02:14;;;;;;;22.98;10.50;;;;;;;3.40;100.00;102262.72;5073178;28;20075;-65
2022/10/12 05:04:39;;;;;;;24.27;10.77;;;;;;;3.35;100.00;102262.47;5074036;28;20490;-63
2022/10/12 05:07:05;;;;;;;23.30;10.93;;;;;;;3.27;100.00;102258.50;5070898;28;20025;-64
2022/10/12 05:09:30;;;;;;;22.20;10.50;;;;;;;3.25;100.00;102247.97;5074272;28;20479;-65
2022/10/12 05:11:55;;;;;;;24.92;10.93;;;;;;;3.25;100.00;102255.81;5074075;28;20069;-65
2022/10/12 05:14:21;;;;;;;23.70;11.85;;;;;;;3.14;100.00;102249.94;5073939;28;20028;-65
2022/10/12 05:16:46;;;;;;;24.90;11.35;;;;;;;3.06;100.00;102251.25;5073347;28;20517;-63
2022/10/12 05:19:11;;;;;;;24.10;11.90;;;;;;;2.97;100.00;102241.16;5072551;28;20514;-64
2022/10/12 05:21:39;;;;;;;25.52;12.50;;;;;;;2.94;100.00;102234.84;5073945;28;20033;-64
2022/10/12 05:24:04;;;;;;;25.15;11.80;;;;;;;2.86;100.00;102238.75;5073672;28;20043;-63
2022/10/12 05:26:30;;;;;;;28.83;12.07;;;;;;;2.83;100.00;102231.63;5073817;28;20044;-65
2022/10/12 05:28:55;;;;;;;24.10;10.90;;;;;;;2.76;100.00;102224.25;5072758;28;20024;-65
2022/10/12 05:31:20;;;;;;;23.27;11.23;;;;;;;2.82;100.00;102228.94;5073854;28;20025;-65
2022/10/12 05:33:45;;;;;;;23.45;11.52;;;;;;;2.76;100.00;102227.75;5073886;28;20111;-65
2022/10/12 05:36:11;;;;;;;26.25;12.63;;;;;;;2.75;100.00;102232.88;5073551;28;20029;-64
2022/10/12 05:38:36;;;;;;;24.88;12.23;;;;;;;2.79;100.00;102224.44;5072664;28;20024;-65
2022/10/12 05:41:01;;;;;;;24.63;11.93;;;;;;;2.77;100.00;102224.34;5073149;28;20043;-61
2022/10/12 05:43:27;;;;;;;24.08;12.43;;;;;;;2.82;100.00;102234.16;5073276;28;20522;-61
2022/10/12 05:45:52;;;;;;;26.10;11.80;;;;;;;2.79;100.00;102227.94;5073506;28;20028;-61
2022/10/12 05:48:18;;;;;;;22.30;11.80;;;;;;;2.87;100.00;102227.47;5072113;28;20028;-61
2022/10/12 05:50:43;;;;;;;24.30;13.02;;;;;;;2.91;100.00;102219.00;5071434;28;20036;-62
2022/10/12 05:53:08;;;;;;;25.85;12.95;;;;;;;2.92;100.00;102223.44;5072937;28;20061;-61
2022/10/12 05:55:34;;;;;;;25.15;12.95;;;;;;;2.97;100.00;102219.34;5072997;28;20375;-61
2022/10/12 05:57:59;;;;;;;26.00;13.30;;;;;;;2.98;100.00;102226.38;5072783;28;20465;-61
2022/10/12 06:00:24;;;;;;;24.00;12.30;;;;;;;3.00;100.00;102227.38;5073380;28;20375;-60
2022/10/12 06:02:50;;;;;;;24.63;12.75;;;;;;;3.05;100.00;102233.75;5073009;28;20056;-61
2022/10/12 06:05:16;;;;;;;24.42;13.73;;;;;;;3.10;100.00;102231.41;5073022;28;20028;-60
2022/10/12 06:07:41;;;;;;;25.05;12.55;;;;;;;3.13;100.00;102232.50;5072234;28;20367;-61
2022/10/12 06:10:07;;;;;;;24.77;12.88;;;;;;;3.20;100.00;102233.72;5072809;28;20021;-61
2022/10/12 06:12:33;;;;;;;28.73;14.90;;;;;;;3.22;100.00;102239.03;5073120;28;20479;-60
2022/10/12 06:14:58;;;;;;;27.27;14.48;;;;;;;3.26;100.00;102227.94;5072652;28;20056;-61
2022/10/12 06:17:23;;;;;;;26.13;13.38;;;;;;;3.28;100.00;102234.19;5070639;28;20029;-61
2022/10/12 06:19:48;;;;;;;27.98;14.20;;;;;;;3.32;100.00;102228.31;5072881;28;20419;-61
2022/10/12 06:22:15;;;;;;;24.52;13.25;;;;;;;3.30;100.00;102230.81;5072033;28;20090;-60
2022/10/12 06:24:40;;;;;;;24.35;13.23;;;;;;;3.31;100.00;102223.91;5072679;28;20063;-62
2022/10/12 06:27:06;;;;;;;26.02;13.25;;;;;;;3.37;100.00;102233.78;5072486;28;20479;-62
2022/10/12 06:29:31;;;;;;;25.00;12.48;;;;;;;3.38;100.00;102232.97;5070848;28;20032;-62
2022/10/12 06:31:56;;;;;;;24.88;13.43;;;;;;;3.43;100.00;102235.00;5073020;28;20095;-61
2022/10/12 06:34:22;;;;;;;28.20;17.27;;;;;;;3.52;100.00;102225.91;5072461;28;20039;-61
2022/10/12 06:36:48;;;;;;;26.42;14.45;;;;;;;3.57;100.00;102225.34;5071827;28;20032;-61
2022/10/12 06:39:13;;;;;;;27.00;14.82;;;;;;;3.66;100.00;102227.56;5072098;28;20024;-61
2022/10/12 06:41:38;;;;;;;27.83;15.80;;;;;;;3.70;100.00;102221.69;5071993;28;20082;-61
2022/10/12 06:44:04;;;;;;;27.88;14.68;;;;;;;3.74;100.00;102223.66;5072532;28;20017;-61
2022/10/12 06:46:29;;;;;;;25.77;14.32;;;;;;;3.87;100.00;102224.28;5072219;28;20453;-60
2022/10/12 06:48:55;;;;;;;25.27;13.25;;;;;;;3.89;100.00;102223.56;5071449;28;20024;-62
2022/10/12 06:51:20;;;;;;;25.90;13.80;;;;;;;4.03;100.00;102228.63;5071855;28;20099;-63
2022/10/12 06:53:46;;;;;;;25.38;14.10;;;;;;;4.03;100.00;102231.25;5072212;28;20025;-62
2022/10/12 06:56:11;;;;;;;29.90;15.27;;;;;;;4.04;100.00;102230.44;5072167;28;20463;-61
2022/10/12 06:58:37;;;;;;;26.35;15.00;;;;;;;4.04;100.00;102231.34;5071530;28;20040;-61
2022/10/12 07:01:05;;;;;;;25.98;14.98;;;;;;;4.01;100.00;102231.16;5072091;28;20024;-61
2022/10/12 07:03:31;;;;;;;26.48;15.23;;;;;;;4.00;100.00;102231.97;5068385;28;20017;-62
2022/10/12 07:06:11;;;;;;;28.60;16.00;;;;;;;4.01;100.00;102239.91;5069417;28;20388;-61
2022/10/12 07:08:37;;;;;;;27.13;15.88;;;;;;;3.99;100.00;102240.63;5071509;28;20111;-62
2022/10/12 07:11:04;;;;;;;29.20;16.33;;;;;;;4.05;100.00;102241.00;5072037;28;20023;-62
2022/10/12 07:13:31;;;;;;;27.92;16.45;;;;;;;4.09;100.00;102236.81;5071702;28;20491;-62
2022/10/12 07:15:56;;;;;;;28.73;16.15;;;;;;;4.16;100.00;102234.59;5071018;28;20063;-62
2022/10/12 07:18:22;;;;;;;28.05;16.15;;;;;;;4.16;100.00;102229.34;5070986;28;20037;-63
2022/10/12 07:20:47;;;;;;;28.27;16.10;;;;;;;4.17;100.00;102230.25;5071691;28;20036;-63
2022/10/12 07:23:12;;;;;;;28.92;16.63;;;;;;;4.17;100.00;102225.03;5072051;28;20020;-63
2022/10/12 07:25:38;;;;;;;30.30;16.92;;;;;;;4.16;100.00;102228.47;5071306;28;20028;-62
2022/10/12 07:28:05;;;;;;;28.23;16.65;;;;;;;4.17;100.00;102217.19;5071096;28;20479;-62
2022/10/12 07:30:30;;;;;;;28.55;16.80;;;;;;;4.24;100.00;102218.38;5071125;28;20043;-62
2022/10/12 07:32:55;;;;;;;27.33;16.65;;;;;;;4.23;100.00;102213.97;5071876;28;20414;-65
2022/10/12 07:35:21;;;;;;;29.70;17.05;;;;;;;4.28;100.00;102218.66;5072001;28;20020;-64
2022/10/12 07:37:49;;;;;;;28.70;16.73;;;;;;;4.33;100.00;102222.38;5071951;28;20137;-66
2022/10/12 07:40:14;;;;;;;28.40;16.65;;;;;;;4.35;100.00;102223.38;5071087;28;20021;-65
2022/10/12 07:42:40;;;;;;;29.25;17.17;;;;;;;4.44;100.00;102229.88;5071595;28;20032;-65
2022/10/12 07:45:06;;;;;;;28.52;16.90;;;;;;;4.48;100.00;102222.25;5071743;28;20024;-65
2022/10/12 07:47:31;;;;;;;29.88;17.67;;;;;;;4.62;100.00;102225.59;5071395;28;20383;-65
2022/10/12 07:49:56;;;;;;;28.63;17.10;;;;;;;4.71;100.00;102225.16;5071473;28;20024;-64
2022/10/12 07:52:22;;;;;;;28.83;17.83;;;;;;;4.89;100.00;102230.41;5071190;28;20025;-65
2022/10/12 07:54:47;;;;;;;29.70;16.95;;;;;;;5.06;100.00;102232.16;5071263;28;20071;-65
2022/10/12 07:57:12;;;;;;;27.20;16.67;;;;;;;5.26;100.00;102236.56;5068921;28;20037;-64
2022/10/12 07:59:38;;;;;;;32.97;17.45;;;;;;;5.33;100.00;102238.66;5069818;28;20032;-65
2022/10/12 08:02:03;;;;;;;29.73;17.25;;;;;;;5.49;100.00;102230.72;5071220;28;20032;-65
2022/10/12 08:04:28;;;;;;;28.60;17.40;;;;;;;5.57;100.00;102234.56;5071148;28;20047;-64
2022/10/12 08:06:54;;;;;;;31.35;18.33;;;;;;;5.66;100.00;102238.47;5071157;28;20157;-66
2022/10/12 08:09:19;;;;;;;30.20;19.58;;;;;;;5.76;100.00;102246.81;5070855;28;20064;-64
2022/10/12 08:11:45;;;;;;;31.83;19.50;;;;;;;5.82;100.00;102238.34;5071360;28;20087;-64
2022/10/12 08:14:13;;;;;;;33.33;21.23;;;;;;;5.88;100.00;102240.34;5068826;28;20085;-65
2022/10/12 08:16:38;;;;;;;36.22;22.70;;;;;;;5.93;100.00;102241.47;5070397;28;20083;-65
2022/10/12 08:19:04;;;;;;;34.65;22.70;;;;;;;6.00;100.00;102237.41;5070897;28;20056;-64
2022/10/12 08:21:29;;;;;;;34.05;22.65;;;;;;;6.14;100.00;102233.69;5071241;28;20131;-63
2022/10/12 08:23:54;;;;;;;33.88;22.90;;;;;;;6.33;100.00;102231.88;5071175;28;20467;-63
2022/10/12 08:26:19;;;;;;;36.42;22.92;;;;;;;6.54;100.00;102224.00;5071409;28;20467;-62
2022/10/12 08:28:45;;;;;;;33.97;22.58;;;;;;;6.69;100.00;102226.41;5069863;28;20511;-64
2022/10/12 08:31:13;;;;;;;33.65;22.95;;;;;;;6.84;100.00;102227.03;5070987;28;20103;-62
2022/10/12 08:33:39;;;;;;;35.33;23.02;;;;;;;6.98;100.00;102223.25;5070868;28;20115;-62
2022/10/12 08:36:06;;;;;;;34.72;23.27;;;;;;;7.27;100.00;102226.19;5070846;28;20344;-63
2022/10/12 08:38:31;;;;;;;35.70;23.80;;;;;;;7.75;100.00;102214.88;5072074;28;20094;-63
2022/10/12 08:41:12;;;;;;;33.92;23.13;;;;;;;8.22;100.00;102222.72;5074080;28;20020;-64
2022/10/12 08:44:22;;;;;;;33.63;21.90;;;;;;;8.70;100.00;102227.94;5074737;28;20024;-62
2022/10/12 08:46:48;;;;;;;34.28;21.42;;;;;;;8.93;100.00;102227.84;5011005;28;20042;-62
2022/10/12 08:49:18;;;;;;;35.03;21.45;;;;;;;9.15;100.00;102225.91;5012327;28;20605;-62
2022/10/12 08:52:03;;;;;;;32.17;20.73;;;;;;;9.31;100.00;102217.63;5012635;28;20434;-62
2022/10/12 08:54:36;;;;;;;31.98;21.20;;;;;;;9.45;100.00;102225.97;5011367;28;20489;-63
2022/10/12 08:57:01;;;;;;;34.97;22.35;;;;;;;9.53;100.00;102215.63;5010109;28;20556;-65
2022/10/12 08:59:28;;;;;;;34.65;22.25;;;;;;;9.64;100.00;102219.50;5011979;28;20026;-65
2022/10/12 09:02:24;;;;;;;34.45;21.65;;;;;;;9.86;100.00;102225.41;5009041;28;20408;-66
2022/10/12 09:04:58;;;;;;;33.70;21.70;;;;;;;10.19;100.00;102220.19;5010940;28;20037;-67
2022/10/12 09:07:35;;;;;;;32.85;20.25;;;;;;;10.52;100.00;102236.97;5012021;28;20033;-66
2022/10/12 09:10:20;;;;;;;32.00;20.52;;;;;;;10.28;100.00;102230.13;5012171;28;20038;-65
2022/10/12 09:13:09;;;;;;;33.08;20.40;;;;;;;10.20;100.00;102231.66;5010694;28;20030;-65
2022/10/12 09:15:49;;;;;;;32.00;19.17;;;;;;;10.23;100.00;102234.41;5012213;28;20052;-66
2022/10/12 09:18:20;;;;;;;32.50;19.90;;;;;;;10.35;100.00;102242.69;5010760;28;20038;-66
2022/10/12 09:20:48;;;;;;;31.25;18.83;;;;;;;10.32;100.00;102239.91;5011945;28;20041;-66
2022/10/12 09:23:22;;;;;;;32.10;19.20;;;;;;;10.34;100.00;102240.91;5041072;28;20090;-66
2022/10/12 09:25:49;;;;;;;32.35;19.67;;;;;;;10.52;100.00;102240.50;5073315;28;20379;-66
2022/10/12 09:28:25;;;;;;;31.52;18.13;;;;;;;10.63;100.00;102239.03;5073287;28;20029;-64
2022/10/12 09:31:22;;;;;;;31.67;18.05;;;;;;;10.86;100.00;102235.19;5073830;28;20049;-66
2022/10/12 09:33:53;;;;;;;31.13;18.02;;;;;;;11.41;100.00;102235.66;5073047;28;20516;-66
2022/10/12 09:36:20;;;;;;;31.20;17.50;;;;;;;12.20;100.00;102232.94;5071948;28;20036;-67
2022/10/12 09:38:47;;;;;;;28.85;16.52;;;;;;;13.12;100.00;102233.69;5073738;28;20035;-67
2022/10/12 09:41:20;;;;;;;29.08;16.10;;;;;;;13.82;100.00;102230.28;5072383;28;20138;-65
2022/10/12 09:43:49;;;;;;;28.48;15.70;;;;;;;14.24;100.00;102228.09;5073521;28;20029;-65
2022/10/12 09:46:17;;;;;;;28.55;15.55;;;;;;;14.27;100.00;102233.47;5073656;28;20074;-65
2022/10/12 09:48:56;;;;;;;29.48;15.80;;;;;;;13.90;100.00;102236.59;5072811;28;20033;-65
2022/10/12 09:51:23;;;;;;;28.42;16.02;;;;;;;14.35;100.00;102228.25;5073451;28;20493;-65
2022/10/12 09:53:49;;;;;;;28.23;15.50;;;;;;;15.28;100.00;102233.50;5072742;28;20036;-66
2022/10/12 09:56:29;;;;;;;28.08;15.50;;;;;;;16.17;100.00;102230.44;5073504;28;20028;-65
2022/10/12 09:59:04;;;;;;;27.20;15.57;;;;;;;16.60;100.00;102218.97;5073139;28;20116;-66
2022/10/12 10:01:32;;;;;;;28.77;15.18;;;;;;;17.24;100.00;102219.84;5069890;28;20031;-65
2022/10/12 10:04:29;;;;;;;28.08;15.02;;;;;;;18.31;100.00;102209.66;5069238;28;20021;-66
2022/10/12 10:06:54;;;;;;;28.02;14.35;;;;;;;18.61;95.48;102213.00;5070933;28;20613;-65
2022/10/12 10:09:28;;;;;;;27.02;14.02;;;;;;;19.26;83.59;102196.41;5072920;28;20112;-65
2022/10/12 10:11:54;;;;;;;28.73;14.50;;;;;;;19.99;65.39;102193.75;5073573;28;20055;-65
2022/10/12 10:14:19;;;;;;;27.95;13.95;;;;;;;20.37;58.25;102201.28;5073427;28;20467;-65
2022/10/12 10:16:50;;;;;;;27.25;13.93;;;;;;;20.86;54.58;102207.66;5073012;28;20088;-66
2022/10/12 10:19:25;;;;;;;27.83;13.38;;;;;;;20.66;50.11;102207.09;5071486;28;20036;-63
2022/10/12 10:21:52;;;;;;;28.90;13.68;;;;;;;21.56;46.60;102209.13;5070861;28;20093;-64
2022/10/12 10:24:25;;;;;;;25.50;12.00;;;;;;;21.90;43.63;102201.22;5070899;28;20078;-65
2022/10/12 10:27:04;;;;;;;25.63;12.05;;;;;;;22.15;44.04;102197.09;5072775;28;20020;-65
2022/10/12 10:29:40;;;;;;;25.63;11.18;;;;;;;22.40;42.24;102200.16;5070294;28;20353;-64
2022/10/12 10:32:28;;;;;;;23.58;11.27;;;;;;;22.88;39.62;102202.53;5073341;28;20021;-66
2022/10/12 10:35:16;;;;;;;24.25;11.73;;;;;;;23.36;42.17;102208.47;5070115;28;20039;-66
2022/10/12 10:38:00;;;;;;;24.98;11.23;;;;;;;23.83;42.60;102198.13;5071922;28;20055;-65
2022/10/12 10:40:29;;;;;;;25.13;11.60;;;;;;;24.99;36.19;102208.84;5070492;28;20103;-64
2022/10/12 10:42:57;;;;;;;25.67;10.38;;;;;;;24.41;35.55;102205.41;5073560;28;20020;-65
2022/10/12 10:45:29;;;;;;;23.98;9.80;;;;;;;25.09;35.84;102198.63;5073056;28;20443;-65
2022/10/12 10:48:00;;;;;;;21.80;8.85;;;;;;;25.80;33.72;102189.72;5073257;28;20043;-64
2022/10/12 10:50:35;;;;;;;22.75;8.73;;;;;;;25.77;34.98;102181.72;5073198;28;20025;-64
2022/10/12 10:53:05;;;;;;;23.25;8.43;;;;;;;25.56;33.82;102185.19;5073123;28;20046;-64
2022/10/12 10:55:50;;;;;;;23.70;8.50;;;;;;;25.72;35.79;102182.78;5073066;28;20478;-65
2022/10/12 10:58:38;;;;;;;21.67;7.95;;;;;;;26.81;34.79;102181.16;5069787;28;20299;-62
2022/10/12 11:01:44;;;;;;;21.83;8.18;;;;;;;27.20;32.90;102177.63;5068503;28;20024;-62
2022/10/12 11:04:16;;;;;;;21.52;7.40;;;;;;;26.14;32.15;102172.16;5068824;28;20400;-62
2022/10/12 11:06:46;;;;;;;21.85;6.65;;;;;;;26.44;31.56;102168.22;5071833;28;20482;-62
2022/10/12 11:09:29;;;;;;;20.10;6.50;;;;;;;27.66;32.07;102164.69;5071634;28;20033;-61
2022/10/12 11:11:59;;;;;;;21.00;6.28;;;;;;;27.99;27.87;102161.38;5069417;28;20116;-61
2022/10/12 11:14:37;;;;;;;19.77;5.97;;;;;;;27.78;30.31;102155.09;5071729;28;20020;-62
2022/10/12 11:17:11;;;;;;;21.42;6.53;;;;;;;27.80;28.48;102154.06;5072182;28;20127;-61
2022/10/12 11:20:00;;;;;;;20.45;5.90;;;;;;;27.09;28.94;102148.28;5071652;28;20055;-61
2022/10/12 11:22:47;;;;;;;20.10;6.07;;;;;;;25.56;30.66;102143.69;5070022;28;20349;-59